Etusivu
METAR-TAF:

METAR-TAF

Lentoasemat :

Gatesville Municipal Airport

Gatesville, Texas, Yhdysvallat

Leveyspiiri: 31-25-16N, Pituuspiiri: 097-47-49W, korkeus merenpinnasta: 276 m

Tämänhetkinen sää

Tämä raportti tehtiin 25 minuuttia sitten, kello 13.15 UTC
Tuuli 7 kn etelästä
Lämpötila 26°C
Kosteus 84%
Ilmanpaine 1012 hPa
Näkyvyys: 16.1 km
Hajanaisia pilviä 3200 ft:n korkeudessa

METAR: KGOP 191315Z AUTO 19007KT 10SM SCT032 26/23 A2988 RMK AO2

Aika: 08:40 (13:40 UTC)


TAF: puuttuu

Säähavainnot ja -ennusteet yli 4000 lentoasemalta (METAR- ja TAF-raportit).

Käytössä olevat sääasemat on merkitty karttaan keltaisilla ja punaisilla pisteillä.

Aseta hiiri pisteen päälle nähdäksesi sääaseman nimen.

Klikkaa sitten nähdäksesi säähavainnot ja -ennusteet.

Kartan vaihtaminen: klikkaa mustalla rastilla varustettuja vihreitä pisteitä, niin voit zoomata sisään; viivalla varustettua vihreää pistettä, niin voit zoomata ulos tai vihreitä nuolia, niin pääset viereisille kartoille.


METAR-TAF: